Time;durP1;ratioP1;P1;durP2;ratioP2;P2;SDS_P1;SDS_P2;PMS_P1;PMS_P2;Temp;Humidity;BMP_temperature;BMP_pressure;BME280_temperature;BME280_humidity;BME280_pressure;Samples;Min_cycle;Max_cycle;Signal;HPM_P1;HPM_P2
2022/09/26 00:01:27;;;;;;;3.10;2.25;;;10.70;99.90;;;;;;5025863;28;20033;-69
2022/09/26 00:04:00;;;;;;;5.28;2.22;;;10.70;99.90;;;;;;5011757;28;20037;-69
2022/09/26 00:06:27;;;;;;;5.20;1.90;;;10.60;99.90;;;;;;5013769;28;20379;-69
2022/09/26 00:08:54;;;;;;;8.30;2.65;;;10.60;99.90;;;;;;5013777;28;20029;-69
2022/09/26 00:11:27;;;;;;;2.40;1.88;;;10.60;99.90;;;;;;5029360;28;20034;-69
2022/09/26 00:13:57;;;;;;;5.93;2.85;;;10.60;99.90;;;;;;5028721;28;20413;-69
2022/09/26 00:16:24;;;;;;;12.27;3.13;;;10.60;99.90;;;;;;5029057;28;20072;-69
2022/09/26 00:18:53;;;;;;;6.43;1.88;;;10.50;99.90;;;;;;5028415;28;20026;-69
2022/09/26 00:21:20;;;;;;;2.60;1.50;;;10.50;99.90;;;;;;5013853;28;20022;-69
2022/09/26 00:23:46;;;;;;;5.60;2.85;;;10.40;99.90;;;;;;5028701;28;20025;-69
2022/09/26 00:26:14;;;;;;;12.60;4.63;;;10.40;99.90;;;;;;5028787;28;20516;-69
2022/09/26 00:28:40;;;;;;;4.72;2.83;;;10.40;99.90;;;;;;5028733;28;20037;-69
2022/09/26 00:31:12;;;;;;;6.30;2.97;;;10.40;99.90;;;;;;5013525;28;20076;-68
2022/09/26 00:33:38;;;;;;;5.53;2.38;;;10.40;99.90;;;;;;5013411;28;20034;-68
2022/09/26 00:36:05;;;;;;;3.95;2.05;;;10.40;99.90;;;;;;5028816;28;20056;-69
2022/09/26 00:38:32;;;;;;;8.77;2.63;;;10.40;99.90;;;;;;5013803;28;20474;-69
2022/09/26 00:40:58;;;;;;;3.95;1.95;;;10.40;99.90;;;;;;5013263;28;20033;-68
2022/09/26 00:43:46;;;;;;;7.72;3.17;;;10.30;99.90;;;;;;5013238;28;20034;-69
2022/09/26 00:46:38;;;;;;;5.50;2.88;;;10.30;99.90;;;;;;4996081;28;20041;-69
2022/09/26 00:49:26;;;;;;;8.68;3.65;;;10.30;99.90;;;;;;5013144;28;20045;-68
2022/09/26 00:52:18;;;;;;;6.78;2.22;;;10.40;99.90;;;;;;5028214;28;20042;-68
2022/09/26 00:54:48;;;;;;;;;;;10.30;99.90;;;;;;5028751;28;20034;-68
2022/09/26 00:57:24;;;;;;;2.88;1.85;;;10.30;99.90;;;;;;5028054;28;19917;-69
2022/09/26 00:59:59;;;;;;;4.70;1.90;;;10.30;99.90;;;;;;5027549;28;20033;-68
2022/09/26 01:02:27;;;;;;;6.55;2.85;;;10.30;99.90;;;;;;5028017;28;20406;-68
2022/09/26 01:04:55;;;;;;;5.10;2.70;;;10.30;99.90;;;;;;5025570;28;20072;-70
2022/09/26 01:07:25;;;;;;;5.50;2.35;;;10.20;99.90;;;;;;4990097;28;20047;-70
2022/09/26 01:09:52;;;;;;;6.60;3.70;;;10.20;99.90;;;;;;5027475;28;20030;-69
2022/09/26 01:12:20;;;;;;;3.65;2.47;;;10.20;99.90;;;;;;5012265;28;20461;-70
2022/09/26 01:14:47;;;;;;;4.65;2.78;;;10.20;99.90;;;;;;5025408;28;20144;-70
2022/09/26 01:17:14;;;;;;;5.75;3.72;;;10.20;99.90;;;;;;4991861;28;20084;-70
2022/09/26 01:20:06;;;;;;;3.90;1.98;;;10.20;99.90;;;;;;4991835;28;20023;-70
2022/09/26 01:22:56;;;;;;;9.52;2.08;;;10.20;99.90;;;;;;4991497;28;20034;-70
2022/09/26 01:26:18;;;;;;;4.38;3.15;;;10.20;99.90;;;;;;5010736;28;20042;-70
2022/09/26 01:29:22;;;;;;;7.13;3.13;;;10.10;99.90;;;;;;5012504;28;20073;-69
2022/09/26 01:33:06;;;;;;;2.85;2.13;;;10.10;99.90;;;;;;5012556;28;20116;-69
2022/09/26 01:36:10;;;;;;;4.00;2.42;;;10.00;99.90;;;;;;5009626;28;20081;-69
2022/09/26 01:39:12;;;;;;;2.85;2.03;;;10.00;99.90;;;;;;5009437;28;20061;-69
2022/09/26 01:42:08;;;;;;;3.28;2.30;;;10.00;99.90;;;;;;4997258;28;20053;-68
2022/09/26 01:44:41;;;;;;;4.38;2.50;;;10.10;99.90;;;;;;4974144;28;20093;-69
2022/09/26 01:47:37;;;;;;;3.35;2.47;;;10.10;99.90;;;;;;4973667;28;20073;-69
2022/09/26 01:50:12;;;;;;;5.25;2.40;;;10.10;99.90;;;;;;4958651;28;20109;-69
2022/09/26 01:53:02;;;;;;;4.40;2.67;;;10.10;99.90;;;;;;4989623;28;20404;-69
2022/09/26 01:55:39;;;;;;;2.67;1.83;;;10.00;99.90;;;;;;4974229;28;20041;-69
2022/09/26 01:58:38;;;;;;;5.40;2.58;;;10.00;99.90;;;;;;4974151;28;20141;-70
2022/09/26 02:01:09;;;;;;;4.72;2.90;;;10.00;99.90;;;;;;4975025;28;20105;-69
2022/09/26 02:03:38;;;;;;;;;;;9.90;99.90;;;;;;4989781;28;20395;-69
2022/09/26 02:06:11;;;;;;;5.60;1.75;;;9.90;99.90;;;;;;4978673;28;19909;-69
2022/09/26 02:08:43;;;;;;;8.85;2.67;;;9.90;99.90;;;;;;4990741;28;20030;-69
2022/09/26 02:11:17;;;;;;;4.57;2.92;;;9.90;99.90;;;;;;4991070;28;20037;-70
2022/09/26 02:13:57;;;;;;;3.75;2.28;;;9.90;99.90;;;;;;4974911;28;20101;-69
2022/09/26 02:16:52;;;;;;;3.45;2.17;;;9.90;99.90;;;;;;5008288;28;20493;-69
2022/09/26 02:19:32;;;;;;;4.18;2.35;;;9.90;99.90;;;;;;5026088;28;20434;-69
2022/09/26 02:21:59;;;;;;;6.88;2.05;;;9.90;99.90;;;;;;5026065;28;20057;-68
2022/09/26 02:24:26;;;;;;;5.05;2.58;;;9.90;99.90;;;;;;5026346;28;20401;-69
2022/09/26 02:26:52;;;;;;;11.43;3.30;;;9.90;99.90;;;;;;5003566;23;20043;-66
2022/09/26 02:29:19;;;;;;;5.70;3.00;;;9.90;99.90;;;;;;4964963;28;20467;-67
2022/09/26 02:32:11;;;;;;;13.77;3.17;;;9.90;99.90;;;;;;4951963;28;20447;-68
2022/09/26 02:34:40;;;;;;;6.10;3.08;;;9.90;99.90;;;;;;4952000;29;20038;-67
2022/09/26 02:37:06;;;;;;;4.50;2.92;;;9.90;99.90;;;;;;4961861;28;20035;-67
2022/09/26 02:39:32;;;;;;;8.00;3.10;;;9.90;99.90;;;;;;4970506;28;20031;-67
2022/09/26 02:42:22;;;;;;;3.55;1.92;;;9.90;99.90;;;;;;4970761;28;20493;-67
2022/09/26 02:45:44;;;;;;;4.00;2.53;;;9.90;99.90;;;;;;4971223;28;20022;-69
2022/09/26 02:48:40;;;;;;;8.80;2.42;;;9.90;99.90;;;;;;4968550;28;20113;-67
2022/09/26 02:51:53;;;;;;;6.63;3.17;;;9.90;99.90;;;;;;4972061;28;20066;-67
2022/09/26 02:55:07;;;;;;;8.93;3.60;;;10.00;99.90;;;;;;4971824;28;20042;-67
2022/09/26 02:58:12;;;;;;;6.22;3.05;;;9.90;99.90;;;;;;4970560;28;20039;-67
2022/09/26 03:00:59;;;;;;;4.43;2.33;;;9.90;99.90;;;;;;4971913;28;20066;-67
2022/09/26 03:03:36;;;;;;;4.15;3.13;;;9.80;99.90;;;;;;4970568;28;20023;-68
2022/09/26 03:06:06;;;;;;;3.45;2.40;;;9.80;99.90;;;;;;4970683;28;20495;-67
2022/09/26 03:08:39;;;;;;;5.95;3.90;;;9.80;99.90;;;;;;4970864;28;20333;-67
2022/09/26 03:11:09;;;;;;;2.30;1.70;;;9.80;99.90;;;;;;4970310;28;20097;-67
2022/09/26 03:13:38;;;;;;;5.33;2.40;;;9.80;99.90;;;;;;4970432;28;20534;-67
2022/09/26 03:16:05;;;;;;;5.95;3.05;;;9.80;99.90;;;;;;4985353;28;20629;-67
2022/09/26 03:18:50;;;;;;;6.22;3.60;;;9.70;99.90;;;;;;5006163;28;20022;-67
2022/09/26 03:21:16;;;;;;;5.88;2.95;;;9.70;99.90;;;;;;5005723;28;20092;-67
2022/09/26 03:23:42;;;;;;;6.15;3.10;;;9.70;99.90;;;;;;5005815;28;20085;-67
2022/09/26 03:26:14;;;;;;;5.82;3.47;;;9.70;99.90;;;;;;5005381;28;20069;-67
2022/09/26 03:28:40;;;;;;;3.28;2.33;;;9.70;99.90;;;;;;5005697;28;20471;-67
2022/09/26 03:31:06;;;;;;;3.17;2.42;;;9.60;99.90;;;;;;4991163;28;20027;-67
2022/09/26 03:33:34;;;;;;;7.85;3.33;;;9.70;99.90;;;;;;4990831;28;20049;-67
2022/09/26 03:36:05;;;;;;;3.00;2.20;;;9.60;99.90;;;;;;4991195;28;20076;-68
2022/09/26 03:38:31;;;;;;;2.80;2.20;;;9.60;99.90;;;;;;4993474;28;20029;-67
2022/09/26 03:40:57;;;;;;;8.25;2.70;;;9.60;99.90;;;;;;4994511;28;20034;-68
2022/09/26 03:43:23;;;;;;;5.78;2.83;;;9.50;99.90;;;;;;4994599;28;20026;-68
2022/09/26 03:45:50;;;;;;;3.58;2.10;;;9.50;99.90;;;;;;4995043;28;20027;-68
2022/09/26 03:48:16;;;;;;;3.88;2.47;;;9.50;99.90;;;;;;5009845;28;20031;-68
2022/09/26 03:50:42;;;;;;;4.72;3.20;;;9.50;99.90;;;;;;4994286;28;20122;-67
2022/09/26 03:53:08;;;;;;;3.92;2.47;;;9.40;99.90;;;;;;5009617;28;20093;-68
2022/09/26 03:55:34;;;;;;;5.05;3.05;;;9.40;99.90;;;;;;4994613;28;20026;-68
2022/09/26 03:58:00;;;;;;;4.47;2.28;;;9.40;99.90;;;;;;4994448;28;20023;-68
2022/09/26 04:00:26;;;;;;;3.65;2.67;;;9.40;99.90;;;;;;5009121;28;20025;-68
2022/09/26 04:02:52;;;;;;;4.32;2.78;;;9.40;99.90;;;;;;4994275;28;20023;-68
2022/09/26 04:05:18;;;;;;;4.57;3.08;;;9.40;99.90;;;;;;4994676;28;20117;-68
2022/09/26 04:07:44;;;;;;;3.05;2.08;;;9.50;99.90;;;;;;4993152;28;20125;-68
2022/09/26 04:10:11;;;;;;;3.50;2.28;;;9.40;99.90;;;;;;4994085;28;20462;-67
2022/09/26 04:12:37;;;;;;;2.85;2.10;;;9.40;99.90;;;;;;4994212;28;20129;-68
2022/09/26 04:15:07;;;;;;;4.78;2.17;;;9.30;99.90;;;;;;4987731;28;20641;-68
2022/09/26 04:17:33;;;;;;;3.45;1.98;;;9.30;99.90;;;;;;4982392;28;20050;-68
2022/09/26 04:19:59;;;;;;;9.20;3.65;;;9.30;99.90;;;;;;4977306;28;20065;-67
2022/09/26 04:22:26;;;;;;;3.78;2.60;;;9.30;99.90;;;;;;4971248;28;20047;-68
2022/09/26 04:24:52;;;;;;;16.15;3.00;;;9.30;99.90;;;;;;4982004;28;20487;-68
2022/09/26 04:27:18;;;;;;;4.15;2.10;;;9.30;99.90;;;;;;4974260;28;20628;-67
2022/09/26 04:29:44;;;;;;;2.70;1.85;;;9.20;99.90;;;;;;4972942;28;20123;-68
2022/09/26 04:32:11;;;;;;;5.05;2.65;;;9.20;99.90;;;;;;4971699;28;20549;-68
2022/09/26 04:34:39;;;;;;;7.70;3.33;;;9.30;99.90;;;;;;4974217;28;20034;-66
2022/09/26 04:37:05;;;;;;;6.40;3.72;;;9.30;99.90;;;;;;4994258;28;20097;-68
2022/09/26 04:39:31;;;;;;;3.60;2.67;;;9.20;99.90;;;;;;4988791;28;20057;-68
2022/09/26 04:41:57;;;;;;;3.42;1.70;;;9.40;99.90;;;;;;4989048;28;20471;-68
2022/09/26 04:44:23;;;;;;;15.32;3.97;;;9.40;99.90;;;;;;4973980;28;20022;-68
2022/09/26 04:46:49;;;;;;;8.25;3.15;;;9.30;99.90;;;;;;4966059;28;20059;-64
2022/09/26 04:49:14;;;;;;;9.52;3.50;;;9.30;99.90;;;;;;4974985;28;20035;-64
2022/09/26 04:51:40;;;;;;;6.80;3.10;;;9.20;99.90;;;;;;4977989;28;20145;-64
2022/09/26 04:54:07;;;;;;;8.27;4.25;;;9.30;99.90;;;;;;4976970;28;20042;-64
2022/09/26 04:56:33;;;;;;;6.57;3.72;;;9.30;99.90;;;;;;4973826;28;20434;-64
2022/09/26 04:58:59;;;;;;;6.68;3.38;;;9.30;99.90;;;;;;4987714;28;20031;-64
2022/09/26 05:01:25;;;;;;;6.65;4.05;;;9.30;99.90;;;;;;4973896;28;20078;-64
2022/09/26 05:03:53;;;;;;;10.38;4.47;;;9.40;99.90;;;;;;4972141;28;20019;-64
2022/09/26 05:06:19;;;;;;;10.32;3.78;;;9.40;99.90;;;;;;4973511;28;20031;-65
2022/09/26 05:08:46;;;;;;;11.88;5.07;;;9.40;99.90;;;;;;4964165;28;20121;-64
2022/09/26 05:11:15;;;;;;;7.53;3.60;;;9.30;99.90;;;;;;4973441;28;20030;-64
2022/09/26 05:13:41;;;;;;;8.00;4.90;;;9.30;99.90;;;;;;4972973;28;20439;-64
2022/09/26 05:16:08;;;;;;;9.65;4.85;;;9.40;99.90;;;;;;4987432;28;20380;-64
2022/09/26 05:18:35;;;;;;;10.45;4.07;;;9.40;99.90;;;;;;4993032;28;20478;-65
2022/09/26 05:21:02;;;;;;;8.05;4.28;;;9.40;99.90;;;;;;5007732;28;20041;-65
2022/09/26 05:26:26;;;;;;;7.40;4.28;;;9.40;99.90;;;;;;4986816;28;20483;-64
2022/09/26 05:29:00;;;;;;;10.10;5.35;;;9.40;99.90;;;;;;4952610;29;20031;-64
2022/09/26 05:31:28;;;;;;;7.15;4.07;;;9.30;99.90;;;;;;4953790;28;20035;-65
2022/09/26 05:33:56;;;;;;;9.48;4.25;;;9.40;99.90;;;;;;4973048;28;20031;-65
2022/09/26 05:36:27;;;;;;;12.52;5.03;;;9.30;99.90;;;;;;4972762;28;20035;-64
2022/09/26 05:38:53;;;;;;;9.43;4.80;;;9.20;99.90;;;;;;4957724;28;20160;-65
2022/09/26 05:41:19;;;;;;;10.77;4.85;;;9.30;99.90;;;;;;4988365;28;20294;-64
2022/09/26 05:43:46;;;;;;;8.65;4.07;;;9.20;99.90;;;;;;5004155;28;20042;-65
2022/09/26 05:46:13;;;;;;;8.95;4.93;;;9.30;99.90;;;;;;5010604;28;20049;-65
2022/09/26 05:48:40;;;;;;;7.10;4.07;;;9.30;99.90;;;;;;5006743;28;20037;-65
2022/09/26 05:51:15;;;;;;;8.32;4.22;;;9.20;99.90;;;;;;4991624;28;20376;-65
2022/09/26 05:53:44;;;;;;;7.95;3.88;;;9.30;99.90;;;;;;4987041;28;20074;-65
2022/09/26 05:56:12;;;;;;;11.13;4.03;;;9.30;99.90;;;;;;4972405;28;20035;-65
2022/09/26 05:58:40;;;;;;;6.70;3.65;;;9.30;99.90;;;;;;4971099;28;20070;-65
2022/09/26 06:01:13;;;;;;;8.85;4.00;;;9.30;99.90;;;;;;4975020;28;20034;-65
2022/09/26 06:03:43;;;;;;;6.13;4.38;;;9.40;99.90;;;;;;4991530;28;20038;-65
2022/09/26 06:06:12;;;;;;;8.27;4.53;;;9.40;99.90;;;;;;4989953;28;20028;-65
2022/09/26 06:08:39;;;;;;;8.85;4.57;;;9.50;99.90;;;;;;4988825;28;20479;-65
2022/09/26 06:11:12;;;;;;;7.68;3.30;;;9.60;99.90;;;;;;4980752;28;20022;-65
2022/09/26 06:13:42;;;;;;;10.75;4.80;;;9.70;99.90;;;;;;4998043;28;20019;-65
2022/09/26 06:16:19;;;;;;;7.50;4.88;;;9.70;99.90;;;;;;5003706;28;20026;-65
2022/09/26 06:18:46;;;;;;;10.00;4.88;;;9.80;99.90;;;;;;4997859;28;20030;-65
2022/09/26 06:21:16;;;;;;;16.42;4.57;;;9.90;99.90;;;;;;4994813;28;20034;-65
2022/09/26 06:23:41;;;;;;;4.82;3.20;;;9.90;99.90;;;;;;4998627;28;20117;-66
2022/09/26 06:26:18;;;;;;;13.50;3.53;;;10.00;99.90;;;;;;4986295;28;20109;-65
2022/09/26 06:28:44;;;;;;;4.35;3.22;;;10.10;99.90;;;;;;4999267;28;20042;-65
2022/09/26 06:31:17;;;;;;;11.10;4.30;;;10.30;99.90;;;;;;5000836;28;20027;-65
2022/09/26 06:33:48;;;;;;;12.57;2.72;;;10.30;99.90;;;;;;4990047;28;20032;-65
2022/09/26 06:36:13;;;;;;;6.45;3.67;;;10.40;99.90;;;;;;4988657;28;20475;-65
2022/09/26 06:38:39;;;;;;;8.40;3.88;;;10.40;99.90;;;;;;4990469;28;20045;-65
2022/09/26 06:41:06;;;;;;;5.35;3.55;;;10.50;99.90;;;;;;4991605;28;20030;-65
2022/09/26 06:43:32;;;;;;;4.55;2.85;;;10.50;99.90;;;;;;5021976;28;20036;-65
2022/09/26 06:45:58;;;;;;;10.05;3.40;;;10.50;99.90;;;;;;5025297;28;20026;-65
2022/09/26 06:48:24;;;;;;;10.88;4.05;;;10.60;99.90;;;;;;5000383;28;20041;-65
2022/09/26 06:50:55;;;;;;;6.95;2.38;;;10.70;99.90;;;;;;4990682;28;20125;-65
2022/09/26 06:53:21;;;;;;;5.88;2.58;;;10.70;99.90;;;;;;5007723;28;20040;-65
2022/09/26 06:55:48;;;;;;;7.38;3.35;;;10.80;99.90;;;;;;4987530;28;20561;-65
2022/09/26 06:58:14;;;;;;;5.05;2.60;;;10.80;99.90;;;;;;4977654;28;20037;-65
2022/09/26 07:00:40;;;;;;;4.82;3.28;;;11.00;99.90;;;;;;4987725;28;20040;-65
2022/09/26 07:03:07;;;;;;;5.60;3.40;;;11.00;99.90;;;;;;4980249;28;20092;-65
2022/09/26 07:05:33;;;;;;;5.65;3.42;;;11.00;99.90;;;;;;4988004;28;20030;-65
2022/09/26 07:08:00;;;;;;;6.25;3.50;;;11.00;99.90;;;;;;4990320;28;20180;-65
2022/09/26 07:10:29;;;;;;;5.70;3.05;;;11.00;99.90;;;;;;4989436;28;20392;-65
2022/09/26 07:13:02;;;;;;;7.38;2.78;;;11.00;99.90;;;;;;4998867;28;20557;-65
2022/09/26 07:15:31;;;;;;;5.55;3.38;;;11.00;99.90;;;;;;5008325;28;20037;-65
2022/09/26 07:18:01;;;;;;;4.80;3.40;;;11.00;99.90;;;;;;5005933;28;20065;-65
2022/09/26 07:20:32;;;;;;;5.43;3.10;;;11.00;99.90;;;;;;5007683;28;20091;-65
2022/09/26 07:23:04;;;;;;;6.32;3.13;;;11.10;99.90;;;;;;5000909;28;20041;-65
2022/09/26 07:25:32;;;;;;;8.80;4.72;;;11.10;99.90;;;;;;5006284;28;20496;-65
2022/09/26 07:27:58;;;;;;;3.70;2.28;;;11.10;99.90;;;;;;5001146;28;20049;-65
2022/09/26 07:30:25;;;;;;;4.28;2.53;;;11.20;99.90;;;;;;4995564;28;20030;-65
2022/09/26 07:32:50;;;;;;;6.35;3.05;;;11.20;99.90;;;;;;5001140;28;20101;-65
2022/09/26 07:35:16;;;;;;;5.05;1.92;;;11.20;99.90;;;;;;4999661;28;20030;-65
2022/09/26 07:37:43;;;;;;;4.63;2.70;;;11.30;99.90;;;;;;5007763;28;20041;-65
2022/09/26 07:40:10;;;;;;;4.15;2.22;;;11.20;99.90;;;;;;5021894;28;20037;-65
2022/09/26 07:42:37;;;;;;;4.70;2.88;;;11.20;99.90;;;;;;5020505;28;20033;-66
2022/09/26 07:45:05;;;;;;;10.13;4.03;;;11.30;99.90;;;;;;5003782;28;20486;-65
2022/09/26 07:50:19;;;;;;;6.18;2.20;;;11.40;99.90;;;;;;4999457;28;20030;-65
2022/09/26 07:52:47;;;;;;;3.58;2.25;;;11.50;99.90;;;;;;5004603;28;20120;-65
2022/09/26 07:55:20;;;;;;;4.53;2.22;;;11.60;99.90;;;;;;5018109;28;20030;-65
2022/09/26 07:57:48;;;;;;;3.38;1.90;;;11.80;99.90;;;;;;4998086;28;20030;-65
2022/09/26 08:00:18;;;;;;;10.35;2.83;;;11.80;99.90;;;;;;5001715;28;20026;-65
2022/09/26 08:02:45;;;;;;;10.73;2.47;;;12.00;99.90;;;;;;4994769;28;20029;-65
2022/09/26 08:05:18;;;;;;;7.88;2.25;;;12.20;99.90;;;;;;4994753;28;20026;-65
2022/09/26 08:07:46;;;;;;;3.85;2.45;;;12.20;99.90;;;;;;5019841;28;20172;-65
2022/09/26 08:10:19;;;;;;;1.60;1.08;;;12.20;99.90;;;;;;5020638;28;20035;-65
2022/09/26 08:12:46;;;;;;;5.10;1.48;;;12.30;99.90;;;;;;5009873;28;20041;-65
2022/09/26 08:15:13;;;;;;;6.25;2.22;;;12.40;99.90;;;;;;5020313;28;20661;-65
2022/09/26 08:17:39;;;;;;;2.92;1.83;;;12.40;99.90;;;;;;5006683;28;20026;-64
2022/09/26 08:20:06;;;;;;;5.93;1.55;;;12.40;99.90;;;;;;5004701;28;20038;-65
2022/09/26 08:22:32;;;;;;;3.72;1.55;;;12.40;99.90;;;;;;5009178;28;20033;-65
2022/09/26 08:24:59;;;;;;;2.83;1.80;;;12.60;99.90;;;;;;5005615;28;20452;-64
2022/09/26 08:27:25;;;;;;;9.32;1.63;;;12.70;99.90;;;;;;5003220;28;20034;-65
2022/09/26 08:29:51;;;;;;;2.72;1.33;;;12.70;99.90;;;;;;5016074;28;20030;-64
2022/09/26 08:32:19;;;;;;;3.17;1.75;;;12.90;99.90;;;;;;4994974;28;20104;-64
2022/09/26 08:34:46;;;;;;;3.13;1.70;;;12.90;99.90;;;;;;4997960;28;20026;-64
2022/09/26 08:37:13;;;;;;;2.25;1.10;;;12.90;99.90;;;;;;5013070;28;20041;-65
2022/09/26 08:39:38;;;;;;;6.97;1.77;;;13.00;99.90;;;;;;5011842;28;20026;-65
2022/09/26 08:43:03;;;;;;;6.47;2.05;;;13.10;99.90;;;;;;5002275;28;20383;-65
2022/09/26 08:49:16;;;;;;;8.52;1.13;;;13.60;99.90;;;;;;4990562;28;20034;-66
2022/09/26 08:51:48;;;;;;;2.80;1.83;;;13.60;99.90;;;;;;4990099;28;20159;-65
2022/09/26 08:54:36;;;;;;;1.42;0.73;;;13.60;99.90;;;;;;5003208;28;20022;-64
2022/09/26 08:57:43;;;;;;;1.00;0.70;;;13.70;99.90;;;;;;4991918;28;20030;-65
2022/09/26 09:00:25;;;;;;;1.17;0.95;;;13.60;99.90;;;;;;4989920;28;20394;-65
2022/09/26 09:03:08;;;;;;;2.47;1.17;;;13.60;99.90;;;;;;4998010;28;20121;-66
2022/09/26 09:05:50;;;;;;;2.78;1.20;;;13.50;99.90;;;;;;5006665;28;20023;-65
2022/09/26 09:08:34;;;;;;;1.55;0.82;;;13.50;99.90;;;;;;4998779;28;20124;-65
2022/09/26 09:11:38;;;;;;;2.65;1.02;;;13.60;99.90;;;;;;4985969;28;20046;-66
2022/09/26 09:14:33;;;;;;;1.30;0.75;;;13.60;99.90;;;;;;5011461;28;20026;-65
2022/09/26 09:17:27;;;;;;;1.48;1.08;;;13.70;99.90;;;;;;4995023;28;20088;-66
2022/09/26 09:20:21;;;;;;;2.50;1.02;;;13.90;99.90;;;;;;5004990;28;20033;-66
2022/09/26 09:23:14;;;;;;;3.42;0.95;;;14.00;99.90;;;;;;4994716;28;20031;-65
2022/09/26 09:25:53;;;;;;;2.25;1.33;;;14.20;99.90;;;;;;4998309;28;20113;-65
2022/09/26 09:28:35;;;;;;;2.17;1.25;;;14.30;99.90;;;;;;4991593;28;20042;-65
2022/09/26 09:31:07;;;;;;;8.52;1.92;;;14.30;99.90;;;;;;4988735;28;20114;-65
2022/09/26 09:33:40;;;;;;;1.17;0.60;;;14.30;99.90;;;;;;4986691;28;20046;-65
2022/09/26 09:36:15;;;;;;;3.47;0.85;;;14.30;99.90;;;;;;4973857;28;20113;-66
2022/09/26 09:38:46;;;;;;;1.25;0.55;;;14.50;99.90;;;;;;5008754;28;19918;-65
2022/09/26 09:41:29;;;;;;;2.20;0.90;;;14.40;99.90;;;;;;5002542;28;20037;-65
2022/09/26 09:44:00;;;;;;;0.85;0.55;;;14.40;99.90;;;;;;4994051;28;20062;-66
2022/09/26 09:46:49;;;;;;;1.58;1.00;;;14.60;99.90;;;;;;5015390;28;20058;-67
2022/09/26 09:49:25;;;;;;;5.63;0.90;;;14.90;99.90;;;;;;5010628;28;20034;-65
2022/09/26 09:52:01;;;;;;;1.63;0.98;;;15.00;99.90;;;;;;4999346;28;20026;-65
2022/09/26 09:55:04;;;;;;;2.78;0.80;;;15.10;99.90;;;;;;5009458;28;20117;-65
2022/09/26 09:57:51;;;;;;;1.83;0.80;;;15.40;99.90;;;;;;4990304;28;20038;-64
2022/09/26 10:00:18;;;;;;;2.85;1.00;;;15.70;99.90;;;;;;5001910;28;21886;-65
2022/09/26 10:03:23;;;;;;;2.35;1.48;;;15.70;99.90;;;;;;4986972;28;20042;-68
2022/09/26 10:06:00;;;;;;;3.83;1.02;;;16.00;99.90;;;;;;4993790;28;20039;-67
2022/09/26 10:08:34;;;;;;;1.50;0.88;;;16.10;99.90;;;;;;4983042;28;20115;-67
2022/09/26 10:11:11;;;;;;;0.95;0.60;;;15.70;99.90;;;;;;4993136;28;20037;-68
2022/09/26 10:13:42;;;;;;;4.20;1.00;;;15.70;99.90;;;;;;4991492;28;20018;-66
2022/09/26 10:16:13;;;;;;;2.28;1.27;;;15.60;99.90;;;;;;4990022;28;20029;-67
2022/09/26 10:19:33;;;;;;;1.50;0.98;;;15.70;99.90;;;;;;4992171;28;20040;-65
2022/09/26 10:22:00;;;;;;;8.00;1.13;;;15.60;99.90;;;;;;4997452;28;20126;-67
2022/09/26 10:24:40;;;;;;;0.93;0.63;;;15.90;99.90;;;;;;5014111;28;20061;-67
2022/09/26 10:27:22;;;;;;;1.27;0.77;;;15.70;99.90;;;;;;4994405;28;20030;-66
2022/09/26 10:30:00;;;;;;;2.25;1.17;;;15.60;99.90;;;;;;5003831;28;20042;-68
2022/09/26 10:32:28;;;;;;;1.08;0.70;;;15.50;99.90;;;;;;4986405;28;20054;-67
2022/09/26 10:35:22;;;;;;;3.78;0.82;;;15.50;99.90;;;;;;4979767;28;20030;-67
2022/09/26 10:37:59;;;;;;;0.90;0.55;;;15.80;99.90;;;;;;5012056;28;20140;-67
2022/09/26 10:40:47;;;;;;;1.48;0.65;;;15.90;99.90;;;;;;4987929;28;20031;-68
2022/09/26 10:43:29;;;;;;;2.20;0.70;;;15.50;99.90;;;;;;4997962;28;20029;-68
2022/09/26 10:46:12;;;;;;;3.58;0.85;;;15.60;99.90;;;;;;4992584;28;20032;-67
2022/09/26 10:48:48;;;;;;;4.35;0.93;;;15.70;99.90;;;;;;4999928;28;20038;-68
2022/09/26 10:51:17;;;;;;;1.52;0.93;;;15.90;99.90;;;;;;5004662;28;20037;-68
2022/09/26 10:53:46;;;;;;;0.52;0.45;;;15.80;99.90;;;;;;4995789;28;20035;-68
2022/09/26 10:56:19;;;;;;;2.78;0.70;;;15.70;99.90;;;;;;4994033;28;20042;-68
2022/09/26 10:58:45;;;;;;;7.80;1.02;;;16.00;99.90;;;;;;4998188;28;20034;-68
2022/09/26 11:01:28;;;;;;;2.20;0.77;;;16.00;99.90;;;;;;5009406;28;20696;-68
2022/09/26 11:04:10;;;;;;;1.08;0.63;;;16.00;99.90;;;;;;5016576;28;20022;-68
2022/09/26 11:06:45;;;;;;;2.28;0.85;;;16.00;99.90;;;;;;4984141;28;20039;-67
2022/09/26 11:09:19;;;;;;;3.10;0.88;;;16.60;99.90;;;;;;4997291;28;20471;-68
2022/09/26 11:11:46;;;;;;;2.78;1.33;;;16.90;99.90;;;;;;4999243;28;20034;-67
2022/09/26 11:14:31;;;;;;;1.00;0.70;;;16.90;99.90;;;;;;5010937;28;20030;-68
2022/09/26 11:16:58;;;;;;;4.25;0.35;;;16.80;99.90;;;;;;4990936;28;20031;-68
2022/09/26 11:19:38;;;;;;;1.52;0.52;;;17.00;99.90;;;;;;4982886;28;20643;-67
2022/09/26 11:22:18;;;;;;;1.80;0.63;;;16.70;99.90;;;;;;4997519;28;20026;-68
2022/09/26 11:25:13;;;;;;;4.47;0.57;;;16.10;99.90;;;;;;5004538;28;20034;-68
2022/09/26 11:27:46;;;;;;;1.05;0.60;;;16.30;99.90;;;;;;5009193;28;20038;-67
2022/09/26 11:30:19;;;;;;;1.13;0.90;;;16.30;99.90;;;;;;4999940;28;20038;-68
2022/09/26 11:33:12;;;;;;;0.63;0.47;;;16.60;99.90;;;;;;4990857;28;20039;-67
2022/09/26 11:36:20;;;;;;;3.72;0.40;;;17.60;99.90;;;;;;5008408;28;20132;-68
2022/09/26 11:39:11;;;;;;;3.60;0.60;;;18.30;99.90;;;;;;5003700;28;20033;-67
2022/09/26 11:41:47;;;;;;;2.25;0.90;;;18.50;99.90;;;;;;4992175;28;20038;-67
2022/09/26 11:44:44;;;;;;;5.82;0.55;;;18.20;99.80;;;;;;5003259;28;20061;-67
2022/09/26 11:47:35;;;;;;;0.40;0.40;;;18.80;99.90;;;;;;5013043;28;20043;-68
2022/09/26 11:50:22;;;;;;;;;;;17.80;99.90;;;;;;4982247;28;20054;-68
2022/09/26 11:53:22;;;;;;;1.75;0.52;;;18.10;99.40;;;;;;5000171;28;20004;-68
2022/09/26 11:56:34;;;;;;;2.30;0.50;;;18.20;99.70;;;;;;4983860;28;20030;-68
2022/09/26 12:00:01;;;;;;;0.52;0.30;;;19.10;97.40;;;;;;4991220;28;20065;-68
2022/09/26 12:02:59;;;;;;;0.60;0.22;;;19.00;97.50;;;;;;4996946;28;20030;-68
2022/09/26 12:05:53;;;;;;;6.85;0.75;;;18.10;96.50;;;;;;4994437;28;20144;-69
2022/09/26 12:08:40;;;;;;;0.65;0.57;;;18.50;98.90;;;;;;5007319;28;20035;-69
2022/09/26 12:11:27;;;;;;;0.60;0.28;;;18.70;98.20;;;;;;4989867;28;20088;-68
2022/09/26 12:14:17;;;;;;;0.28;0.28;;;19.50;97.10;;;;;;4996023;28;20037;-69
2022/09/26 12:16:53;;;;;;;0.47;0.33;;;19.80;95.80;;;;;;5015316;28;20088;-69
2022/09/26 12:19:36;;;;;;;1.73;0.40;;;20.90;95.30;;;;;;5006727;28;20076;-69
2022/09/26 12:22:36;;;;;;;1.30;1.10;;;20.30;94.60;;;;;;5001738;28;20041;-68
2022/09/26 12:25:49;;;;;;;0.60;0.38;;;20.10;95.00;;;;;;4985166;28;20740;-69
2022/09/26 12:29:09;;;;;;;3.65;0.43;;;20.70;92.90;;;;;;5005152;28;20034;-69
2022/09/26 12:31:49;;;;;;;0.60;0.30;;;20.30;93.00;;;;;;5005461;28;20205;-68
2022/09/26 12:34:24;;;;;;;1.15;0.38;;;20.80;93.20;;;;;;4996485;28;20038;-69
2022/09/26 12:37:13;;;;;;;0.75;0.47;;;20.00;91.90;;;;;;5000665;28;20072;-68
2022/09/26 12:40:16;;;;;;;1.67;0.68;;;18.90;95.10;;;;;;5007261;28;20418;-69
2022/09/26 12:43:28;;;;;;;3.38;0.70;;;18.40;96.20;;;;;;4997498;28;20681;-69
2022/09/26 12:46:18;;;;;;;4.22;1.38;;;18.00;98.00;;;;;;4997648;28;20033;-68
2022/09/26 12:49:05;;;;;;;7.15;0.90;;;17.60;98.40;;;;;;4998417;28;20202;-69
2022/09/26 12:51:58;;;;;;;1.50;0.40;;;17.00;99.30;;;;;;4998329;28;20114;-69
2022/09/26 12:54:33;;;;;;;0.65;0.50;;;16.70;99.90;;;;;;4991112;28;20022;-68
2022/09/26 12:57:24;;;;;;;1.63;0.65;;;16.40;99.90;;;;;;5015928;28;20034;-68
2022/09/26 13:00:08;;;;;;;0.75;0.38;;;16.20;99.90;;;;;;5010614;28;20704;-69
2022/09/26 13:02:54;;;;;;;1.50;0.47;;;15.90;99.90;;;;;;5002898;28;20367;-69
2022/09/26 13:05:48;;;;;;;0.98;0.47;;;15.20;99.90;;;;;;5010271;28;20489;-69
2022/09/26 13:08:56;;;;;;;0.73;0.40;;;14.60;99.90;;;;;;4993135;28;20042;-69
2022/09/26 13:11:46;;;;;;;0.70;0.35;;;14.50;99.90;;;;;;4992957;28;20031;-68
2022/09/26 13:14:37;;;;;;;0.35;0.30;;;14.70;99.90;;;;;;5002352;28;20109;-68
2022/09/26 13:17:16;;;;;;;1.90;0.20;;;14.60;99.90;;;;;;5005644;28;20124;-69
2022/09/26 13:20:13;;;;;;;0.30;0.10;;;14.50;99.90;;;;;;4992484;28;20034;-68
2022/09/26 13:22:53;;;;;;;1.50;0.30;;;14.50;99.90;;;;;;5007381;28;20023;-68
2022/09/26 13:25:47;;;;;;;0.63;0.40;;;14.40;99.90;;;;;;5008393;28;20038;-68
2022/09/26 13:28:45;;;;;;;14.68;0.82;;;14.20;99.90;;;;;;4998996;28;20044;-68
2022/09/26 13:31:22;;;;;;;1.30;0.45;;;14.10;99.90;;;;;;4970519;28;20053;-68
2022/09/26 13:34:16;;;;;;;0.77;0.28;;;14.00;99.90;;;;;;4996996;28;20030;-68
2022/09/26 13:36:43;;;;;;;1.52;0.50;;;14.00;99.90;;;;;;4986892;28;20041;-68
2022/09/26 13:39:25;;;;;;;0.32;0.28;;;14.00;99.90;;;;;;4989854;28;20053;-69
2022/09/26 13:42:19;;;;;;;0.47;0.20;;;14.00;99.90;;;;;;5003146;28;20372;-71
2022/09/26 13:45:08;;;;;;;3.40;0.43;;;14.00;99.90;;;;;;4994813;28;20034;-69
2022/09/26 13:47:53;;;;;;;1.30;0.25;;;14.00;99.90;;;;;;4999130;28;20088;-70
2022/09/26 13:50:45;;;;;;;1.67;0.40;;;14.10;99.90;;;;;;4994822;28;20041;-69